Time;durP1;ratioP1;P1;durP2;ratioP2;P2;SDS_P1;SDS_P2;PMS_P1;PMS_P2;Temp;Humidity;BMP_temperature;BMP_pressure;BME280_temperature;BME280_humidity;BME280_pressure;Samples;Min_cycle;Max_cycle;Signal;HPM_P1;HPM_P2
2023/09/11 00:00:33;;;;;;;10.10;9.18;;;24.00;78.20;;;;;;10411954;28;20036;-56
2023/09/11 00:05:34;;;;;;;10.68;9.57;;;24.10;78.20;;;;;;10411583;28;20033;-56
2023/09/11 00:10:35;;;;;;;9.85;8.85;;;24.10;78.20;;;;;;10411363;28;20227;-57
2023/09/11 00:15:36;;;;;;;9.73;8.88;;;24.00;78.10;;;;;;10410544;28;20099;-56
2023/09/11 00:20:37;;;;;;;11.55;10.38;;;24.10;78.10;;;;;;10410776;28;20402;-56
2023/09/11 00:25:38;;;;;;;10.48;9.48;;;24.00;78.00;;;;;;10374829;28;20373;-57
2023/09/11 00:30:38;;;;;;;10.25;9.20;;;24.00;78.00;;;;;;10389355;28;20028;-57
2023/09/11 00:35:45;;;;;;;9.77;8.73;;;24.00;78.00;;;;;;10369675;28;20091;-56
2023/09/11 00:40:45;;;;;;;10.35;9.35;;;24.00;77.90;;;;;;10369382;28;20054;-56
2023/09/11 00:45:48;;;;;;;10.38;9.23;;;24.00;77.90;;;;;;10369176;28;20556;-56
2023/09/11 00:50:50;;;;;;;10.57;9.57;;;24.00;77.90;;;;;;10368428;28;20380;-56
2023/09/11 00:55:52;;;;;;;10.20;9.30;;;24.00;77.90;;;;;;10400492;28;20569;-56
2023/09/11 01:00:54;;;;;;;10.48;9.45;;;24.00;77.90;;;;;;10385005;28;20121;-57
2023/09/11 01:05:56;;;;;;;9.82;8.93;;;24.00;77.80;;;;;;10391852;28;20132;-56
2023/09/11 01:10:59;;;;;;;10.45;9.48;;;24.00;78.40;;;;;;10381418;28;20099;-56
2023/09/11 01:16:07;;;;;;;10.38;9.38;;;24.00;77.80;;;;;;10381513;28;20060;-56
2023/09/11 01:21:25;;;;;;;10.73;9.63;;;24.00;78.30;;;;;;10387899;28;20035;-55
2023/09/11 01:27:25;;;;;;;10.68;9.68;;;24.00;77.70;;;;;;10367814;28;20032;-56
2023/09/11 01:32:27;;;;;;;10.43;9.43;;;24.00;77.70;;;;;;10381525;28;20354;-55
2023/09/11 01:37:30;;;;;;;10.13;9.23;;;24.00;77.70;;;;;;10345527;28;20109;-57
2023/09/11 01:42:44;;;;;;;10.85;9.85;;;24.00;77.60;;;;;;10362016;28;20377;-56
2023/09/11 01:47:48;;;;;;;10.57;9.68;;;24.00;77.60;;;;;;10345829;28;20053;-56
2023/09/11 01:52:50;;;;;;;10.93;9.85;;;24.00;77.70;;;;;;10345647;28;20232;-57
2023/09/11 01:57:51;;;;;;;9.90;8.90;;;24.00;77.60;;;;;;10361422;28;20189;-56
2023/09/11 02:02:55;;;;;;;10.32;9.32;;;24.00;77.60;;;;;;10370308;28;20054;-56
2023/09/11 02:07:56;;;;;;;9.57;8.57;;;23.90;77.50;;;;;;10415462;28;20071;-56
2023/09/11 02:12:57;;;;;;;10.75;9.65;;;23.90;77.50;;;;;;10415961;28;20412;-56
2023/09/11 02:17:58;;;;;;;9.85;8.95;;;23.90;77.50;;;;;;10415749;28;20034;-57
2023/09/11 02:22:58;;;;;;;10.60;9.50;;;23.90;77.50;;;;;;10401828;28;20041;-56
2023/09/11 02:27:59;;;;;;;10.43;9.43;;;23.90;77.50;;;;;;10381240;28;20048;-56
2023/09/11 02:33:00;;;;;;;9.63;8.73;;;23.90;77.40;;;;;;10408225;28;20080;-57
2023/09/11 02:38:01;;;;;;;10.68;9.68;;;23.90;77.40;;;;;;10414994;28;20029;-57
2023/09/11 02:43:02;;;;;;;9.93;9.02;;;23.90;77.40;;;;;;10415160;28;20029;-57
2023/09/11 02:48:03;;;;;;;10.50;9.52;;;23.90;77.40;;;;;;10414673;28;20125;-56
2023/09/11 02:53:16;;;;;;;10.13;9.13;;;23.90;77.40;;;;;;10414691;28;20485;-56
2023/09/11 02:58:17;;;;;;;10.13;9.15;;;23.90;77.30;;;;;;10414166;28;20044;-56
2023/09/11 03:03:18;;;;;;;10.05;9.15;;;23.90;77.30;;;;;;10410697;28;20029;-57
2023/09/11 03:08:18;;;;;;;11.93;9.68;;;23.90;77.30;;;;;;10373086;28;20357;-56
2023/09/11 03:13:19;;;;;;;10.88;9.48;;;23.90;77.30;;;;;;10372413;28;20103;-56
2023/09/11 03:18:21;;;;;;;10.10;9.10;;;23.90;77.30;;;;;;10405514;28;20033;-56
2023/09/11 03:23:21;;;;;;;10.57;9.35;;;23.90;77.30;;;;;;10404818;28;20034;-56
2023/09/11 03:28:26;;;;;;;11.48;10.48;;;23.90;77.20;;;;;;10418135;28;20075;-57
2023/09/11 03:33:27;;;;;;;10.75;9.75;;;23.90;77.20;;;;;;10379111;28;20033;-56
2023/09/11 03:38:27;;;;;;;12.13;10.90;;;23.90;77.20;;;;;;10368667;28;20034;-56
2023/09/11 03:43:28;;;;;;;10.32;9.30;;;23.90;77.20;;;;;;10384286;28;20033;-56
2023/09/11 03:48:29;;;;;;;11.85;10.07;;;23.90;77.40;;;;;;10383184;28;20033;-56
2023/09/11 03:53:30;;;;;;;11.05;10.00;;;23.90;77.40;;;;;;10384246;28;20044;-55
2023/09/11 03:58:30;;;;;;;11.65;10.38;;;23.90;77.30;;;;;;10383120;28;20527;-56
2023/09/11 04:03:31;;;;;;;13.20;11.85;;;23.90;77.60;;;;;;10387045;28;20038;-55
2023/09/11 04:08:32;;;;;;;11.18;10.07;;;23.90;78.00;;;;;;10372192;28;20080;-56
2023/09/11 04:13:33;;;;;;;10.63;9.63;;;23.90;77.30;;;;;;10367388;28;20060;-57
2023/09/11 04:18:34;;;;;;;10.27;9.35;;;23.90;77.70;;;;;;10389070;28;20052;-56
2023/09/11 04:23:35;;;;;;;10.50;9.60;;;23.90;77.50;;;;;;10388112;28;20096;-56
2023/09/11 04:28:37;;;;;;;10.85;9.75;;;23.90;77.50;;;;;;10415696;28;20025;-56
2023/09/11 04:33:38;;;;;;;11.40;10.40;;;23.90;78.10;;;;;;10372943;28;20026;-57
2023/09/11 04:38:38;;;;;;;11.00;9.90;;;23.80;77.60;;;;;;10370105;28;20493;-57
2023/09/11 04:43:39;;;;;;;11.57;10.13;;;23.90;77.70;;;;;;10369439;28;20466;-56
2023/09/11 04:48:40;;;;;;;11.52;10.45;;;23.80;77.60;;;;;;10368769;28;20041;-59
2023/09/11 04:53:40;;;;;;;10.25;9.13;;;23.80;77.70;;;;;;10367620;28;20030;-59
2023/09/11 04:58:41;;;;;;;10.50;9.50;;;23.90;77.40;;;;;;10369136;28;20033;-57
2023/09/11 05:03:42;;;;;;;10.90;9.45;;;23.80;77.30;;;;;;10380074;28;20026;-57
2023/09/11 05:08:43;;;;;;;13.00;10.95;;;23.90;77.30;;;;;;10388899;28;20099;-57
2023/09/11 05:13:43;;;;;;;10.15;9.15;;;24.00;77.50;;;;;;10367870;28;20046;-56
2023/09/11 05:18:44;;;;;;;11.38;10.20;;;24.00;77.80;;;;;;10368619;28;20030;-57
2023/09/11 05:23:45;;;;;;;13.32;9.80;;;24.00;77.70;;;;;;10367858;28;20057;-57
2023/09/11 05:28:46;;;;;;;10.43;9.43;;;24.00;77.90;;;;;;10385374;28;20036;-57
2023/09/11 05:33:46;;;;;;;10.95;9.35;;;24.00;77.80;;;;;;10369406;28;20045;-57
2023/09/11 05:38:47;;;;;;;16.10;10.45;;;24.00;78.00;;;;;;10368057;28;20084;-57
2023/09/11 05:43:48;;;;;;;11.63;10.43;;;24.00;77.70;;;;;;10367530;28;20049;-58
2023/09/11 05:48:49;;;;;;;13.75;10.35;;;24.00;77.60;;;;;;10367905;28;20750;-57
2023/09/11 05:53:50;;;;;;;17.70;11.57;;;24.00;77.60;;;;;;10392704;28;20045;-57
2023/09/11 05:58:51;;;;;;;15.10;11.93;;;24.00;77.70;;;;;;10367412;28;20034;-58
2023/09/11 06:03:51;;;;;;;14.35;10.90;;;24.00;77.60;;;;;;10377165;28;20038;-57
2023/09/11 06:08:52;;;;;;;11.38;8.93;;;24.00;77.70;;;;;;10366246;28;20306;-58
2023/09/11 06:13:53;;;;;;;12.75;10.40;;;24.00;78.10;;;;;;10365393;28;20485;-57
2023/09/11 06:18:53;;;;;;;18.33;11.38;;;24.00;78.50;;;;;;10403922;28;20029;-57
2023/09/11 06:23:54;;;;;;;15.77;12.05;;;24.00;78.00;;;;;;10385023;28;20045;-57
2023/09/11 06:28:55;;;;;;;11.80;10.65;;;24.00;78.00;;;;;;10373382;28;20036;-58
2023/09/11 06:33:56;;;;;;;17.35;12.27;;;23.90;78.50;;;;;;10406241;28;20029;-57
2023/09/11 06:38:56;;;;;;;16.00;10.88;;;23.90;77.90;;;;;;10394968;28;20486;-58
2023/09/11 06:43:57;;;;;;;11.80;10.32;;;24.00;77.90;;;;;;10400608;28;20037;-57
2023/09/11 06:48:58;;;;;;;13.73;10.57;;;24.00;77.90;;;;;;10412793;28;20457;-57
2023/09/11 06:53:59;;;;;;;11.30;10.07;;;24.00;77.90;;;;;;10412960;28;20040;-58
2023/09/11 06:59:00;;;;;;;11.18;9.30;;;24.00;77.70;;;;;;10399064;28;20041;-57
2023/09/11 07:04:00;;;;;;;13.45;10.15;;;24.00;77.90;;;;;;10412916;28;20029;-57
2023/09/11 07:09:04;;;;;;;13.95;9.77;;;24.00;77.80;;;;;;10388372;28;20034;-58
2023/09/11 07:14:06;;;;;;;16.83;11.02;;;24.00;77.90;;;;;;10371653;28;20055;-57
2023/09/11 07:19:07;;;;;;;26.17;13.00;;;24.00;77.80;;;;;;10395666;28;20034;-58
2023/09/11 07:24:08;;;;;;;16.70;11.65;;;24.00;78.30;;;;;;10370591;28;20042;-58
2023/09/11 07:29:09;;;;;;;17.52;11.48;;;24.00;77.60;;;;;;10374433;28;20462;-58
2023/09/11 07:34:09;;;;;;;12.45;10.48;;;24.00;77.60;;;;;;10370874;28;20495;-58
2023/09/11 07:39:10;;;;;;;14.32;11.27;;;24.10;77.60;;;;;;10370809;28;20029;-58
2023/09/11 07:44:11;;;;;;;13.88;10.77;;;24.10;77.60;;;;;;10396350;28;20044;-57
2023/09/11 07:49:11;;;;;;;14.55;11.00;;;24.10;77.60;;;;;;10370176;28;20030;-57
2023/09/11 07:54:12;;;;;;;18.77;11.23;;;24.10;77.60;;;;;;10369822;28;20044;-58
2023/09/11 07:59:13;;;;;;;12.88;11.50;;;24.10;77.40;;;;;;10374256;28;20029;-57
2023/09/11 08:04:14;;;;;;;17.20;11.90;;;24.10;77.50;;;;;;10379707;28;20033;-58
2023/09/11 08:09:14;;;;;;;13.48;11.43;;;24.20;77.50;;;;;;10410402;28;20025;-57
2023/09/11 08:14:16;;;;;;;12.27;11.07;;;24.20;77.50;;;;;;10409263;28;20061;-58
2023/09/11 08:19:17;;;;;;;11.98;10.75;;;24.20;77.40;;;;;;10371193;28;20108;-58
2023/09/11 08:24:17;;;;;;;11.80;10.30;;;24.20;77.60;;;;;;10367892;28;20034;-59
2023/09/11 08:29:18;;;;;;;12.95;9.75;;;24.20;77.60;;;;;;10388443;28;20034;-57
2023/09/11 08:34:19;;;;;;;12.98;10.60;;;24.20;77.60;;;;;;10400527;28;20838;-56
2023/09/11 08:39:20;;;;;;;13.38;9.98;;;24.30;77.30;;;;;;10408886;28;20087;-59
2023/09/11 08:44:20;;;;;;;13.77;11.05;;;24.30;77.60;;;;;;10367838;28;20393;-57
2023/09/11 08:49:25;;;;;;;13.10;9.93;;;24.30;77.60;;;;;;10400814;28;20022;-57
2023/09/11 08:54:34;;;;;;;12.60;11.40;;;24.30;77.40;;;;;;10389740;28;20083;-58
2023/09/11 08:59:37;;;;;;;12.32;10.10;;;24.30;77.40;;;;;;10378672;28;20451;-58
2023/09/11 09:04:40;;;;;;;11.00;9.68;;;24.30;77.20;;;;;;10374484;28;20034;-58
2023/09/11 09:09:42;;;;;;;12.25;9.48;;;24.30;77.20;;;;;;10393841;28;20029;-59
2023/09/11 09:14:43;;;;;;;11.75;10.55;;;24.40;77.30;;;;;;10394370;28;20155;-58
2023/09/11 09:19:44;;;;;;;12.52;9.75;;;24.40;77.20;;;;;;10409153;28;20116;-58
2023/09/11 09:24:53;;;;;;;12.38;10.43;;;24.40;77.20;;;;;;10383881;28;20038;-58
2023/09/11 09:29:54;;;;;;;12.73;10.35;;;24.40;77.20;;;;;;10385731;28;20052;-58
2023/09/11 09:34:57;;;;;;;12.52;9.77;;;24.50;77.20;;;;;;10384310;28;20033;-58
2023/09/11 09:39:58;;;;;;;13.63;9.63;;;24.40;77.10;;;;;;10381071;28;20029;-58
2023/09/11 09:44:58;;;;;;;12.57;9.85;;;24.40;77.00;;;;;;10379300;28;20030;-58
2023/09/11 09:50:01;;;;;;;11.77;9.25;;;24.40;76.90;;;;;;10366379;28;20022;-58
2023/09/11 09:55:03;;;;;;;10.60;9.52;;;24.50;77.00;;;;;;10365960;28;20033;-57
2023/09/11 10:00:05;;;;;;;10.55;9.10;;;24.50;76.90;;;;;;10366662;28;20018;-56
2023/09/11 10:05:08;;;;;;;10.98;9.27;;;24.50;76.80;;;;;;10389720;28;20026;-58
2023/09/11 10:10:30;;;;;;;10.90;9.80;;;24.60;76.90;;;;;;10389726;28;20060;-59
2023/09/11 10:15:33;;;;;;;11.07;9.45;;;24.60;76.90;;;;;;10375682;28;20065;-58
2023/09/11 10:20:34;;;;;;;11.00;9.13;;;24.60;76.70;;;;;;10407642;28;20490;-58
2023/09/11 10:25:42;;;;;;;9.55;8.50;;;24.60;76.60;;;;;;10380655;28;20087;-58
2023/09/11 10:30:54;;;;;;;9.63;8.60;;;24.60;76.40;;;;;;10393144;28;20137;-58
2023/09/11 10:35:59;;;;;;;10.55;9.20;;;24.60;76.20;;;;;;10395375;28;20350;-60
2023/09/11 10:41:02;;;;;;;12.57;8.85;;;24.70;76.20;;;;;;10399476;28;20444;-61
2023/09/11 10:46:39;;;;;;;10.32;9.20;;;24.70;76.10;;;;;;10395998;28;20342;-59
2023/09/11 10:51:40;;;;;;;10.45;7.72;;;24.70;76.00;;;;;;10385250;28;20057;-59
2023/09/11 10:56:42;;;;;;;12.13;8.43;;;24.70;75.90;;;;;;10396911;28;20041;-58
2023/09/11 11:01:46;;;;;;;13.55;8.85;;;24.80;75.90;;;;;;10397011;28;20030;-57
2023/09/11 11:06:50;;;;;;;12.27;8.13;;;24.80;75.80;;;;;;10371874;28;20064;-58
2023/09/11 11:11:52;;;;;;;11.88;8.82;;;24.80;75.90;;;;;;10371523;28;20037;-58
2023/09/11 11:17:10;;;;;;;9.45;7.63;;;24.80;75.80;;;;;;10396651;28;20045;-57
2023/09/11 11:22:31;;;;;;;13.25;8.20;;;24.90;75.80;;;;;;10377393;28;20030;-58
2023/09/11 11:27:32;;;;;;;9.75;8.57;;;24.90;75.70;;;;;;10412994;28;20018;-58
2023/09/11 11:32:37;;;;;;;11.18;8.00;;;24.90;75.80;;;;;;10391409;28;20037;-58
2023/09/11 11:37:44;;;;;;;8.82;7.93;;;24.90;75.70;;;;;;10370364;28;20113;-58
2023/09/11 11:42:45;;;;;;;11.57;8.35;;;24.90;75.70;;;;;;10370814;28;20037;-58
2023/09/11 11:47:46;;;;;;;9.55;8.02;;;24.90;75.70;;;;;;10370517;28;20026;-58
2023/09/11 11:52:47;;;;;;;8.50;6.75;;;25.00;75.80;;;;;;10370168;28;20050;-58
2023/09/11 11:57:52;;;;;;;15.50;8.25;;;24.90;75.60;;;;;;10369699;28;20037;-58
2023/09/11 12:03:03;;;;;;;9.57;7.55;;;24.90;75.60;;;;;;10370089;28;20571;-59
2023/09/11 12:08:04;;;;;;;10.82;7.97;;;24.90;75.50;;;;;;10369177;28;20034;-59
2023/09/11 12:13:09;;;;;;;9.00;8.07;;;24.90;75.60;;;;;;10387808;28;20045;-59
2023/09/11 12:18:13;;;;;;;9.55;7.20;;;24.90;75.50;;;;;;10405512;28;20033;-59
2023/09/11 12:23:15;;;;;;;12.60;8.65;;;25.00;75.10;;;;;;10377097;28;20052;-58
2023/09/11 12:28:17;;;;;;;7.82;7.05;;;25.00;75.30;;;;;;10400659;28;20498;-59
2023/09/11 12:33:26;;;;;;;9.02;7.38;;;25.00;75.50;;;;;;10410246;28;20041;-58
2023/09/11 12:38:27;;;;;;;12.63;8.35;;;25.00;75.60;;;;;;10369638;28;20172;-59
2023/09/11 12:43:29;;;;;;;12.88;7.00;;;25.00;75.60;;;;;;10367112;28;20600;-59
2023/09/11 12:48:30;;;;;;;14.60;8.25;;;25.00;75.90;;;;;;10368512;28;20030;-60
2023/09/11 12:53:31;;;;;;;8.80;6.82;;;25.00;76.00;;;;;;10384177;28;20038;-59
2023/09/11 12:58:37;;;;;;;15.50;6.93;;;25.00;76.00;;;;;;10383354;28;20037;-60
2023/09/11 13:03:45;;;;;;;8.73;6.70;;;25.00;76.00;;;;;;10388265;28;20564;-57
2023/09/11 13:08:46;;;;;;;15.63;7.83;;;25.00;76.10;;;;;;10367507;28;20521;-58
2023/09/11 13:13:47;;;;;;;14.50;7.47;;;25.00;76.30;;;;;;10367686;28;20046;-58
2023/09/11 13:18:47;;;;;;;12.85;7.63;;;25.00;76.40;;;;;;10385242;28;20026;-58
2023/09/11 13:23:48;;;;;;;12.18;8.52;;;25.00;76.50;;;;;;10367306;28;20573;-59
2023/09/11 13:28:49;;;;;;;13.15;8.25;;;25.00;76.50;;;;;;10385007;28;20029;-57
2023/09/11 13:33:50;;;;;;;10.40;8.05;;;25.00;76.40;;;;;;10367500;28;20037;-58
2023/09/11 13:38:50;;;;;;;9.85;8.05;;;25.00;76.50;;;;;;10399823;28;20025;-58
2023/09/11 13:43:51;;;;;;;13.32;7.88;;;25.00;76.70;;;;;;10407727;28;20033;-57
2023/09/11 13:48:52;;;;;;;12.60;7.80;;;25.00;76.90;;;;;;10376587;28;20018;-58
2023/09/11 13:53:53;;;;;;;12.10;8.13;;;25.00;76.80;;;;;;10366699;28;20030;-57
2023/09/11 13:58:54;;;;;;;9.57;7.32;;;25.00;76.80;;;;;;10374077;28;20034;-57
2023/09/11 14:03:54;;;;;;;14.23;8.80;;;25.00;77.40;;;;;;10378897;28;20030;-60
2023/09/11 14:08:55;;;;;;;13.48;7.07;;;25.00;76.70;;;;;;10373494;28;20037;-60
2023/09/11 14:13:56;;;;;;;15.07;6.93;;;25.00;76.50;;;;;;10374419;28;20054;-60
2023/09/11 14:18:57;;;;;;;12.20;7.57;;;25.00;76.30;;;;;;10381277;28;20084;-60
2023/09/11 14:23:57;;;;;;;13.52;7.20;;;25.00;75.10;;;;;;10376476;28;20376;-59
2023/09/11 14:28:58;;;;;;;13.70;7.60;;;25.00;74.00;;;;;;10392685;28;20033;-59
2023/09/11 14:33:59;;;;;;;10.90;7.65;;;25.00;73.70;;;;;;10375477;28;20044;-60
2023/09/11 14:39:00;;;;;;;14.27;7.32;;;25.00;72.70;;;;;;10373816;28;20041;-61
2023/09/11 14:44:00;;;;;;;12.05;7.25;;;25.00;72.80;;;;;;10379894;28;20083;-58
2023/09/11 14:49:01;;;;;;;9.85;7.63;;;25.10;73.50;;;;;;10372703;28;20026;-58
2023/09/11 14:54:02;;;;;;;12.68;7.65;;;25.20;76.50;;;;;;10373141;28;20095;-58
2023/09/11 14:59:03;;;;;;;17.10;7.47;;;25.30;77.00;;;;;;10371999;28;20030;-58
2023/09/11 15:04:04;;;;;;;8.68;6.15;;;25.30;75.80;;;;;;10371482;28;20468;-57
2023/09/11 15:09:04;;;;;;;9.13;6.80;;;25.10;74.80;;;;;;10371627;28;20033;-57
2023/09/11 15:14:05;;;;;;;11.27;6.85;;;25.10;75.60;;;;;;10403003;28;20049;-60
2023/09/11 15:19:07;;;;;;;10.35;7.47;;;25.00;76.30;;;;;;10412379;28;20365;-61
2023/09/11 15:24:08;;;;;;;12.18;7.15;;;25.00;75.00;;;;;;10389444;28;20473;-60
2023/09/11 15:29:09;;;;;;;16.83;6.80;;;25.00;75.10;;;;;;10389609;28;20028;-58
2023/09/11 15:34:12;;;;;;;22.42;7.35;;;25.10;75.80;;;;;;10371478;28;20050;-59
2023/09/11 15:39:13;;;;;;;11.70;7.90;;;25.00;75.70;;;;;;10370931;28;20358;-59
2023/09/11 15:44:15;;;;;;;16.15;7.38;;;25.00;76.00;;;;;;10370661;28;20037;-59
2023/09/11 15:49:16;;;;;;;16.65;8.27;;;25.00;76.20;;;;;;10371921;28;20509;-62
2023/09/11 15:54:17;;;;;;;16.63;7.50;;;25.00;76.20;;;;;;10370943;28;20018;-59
2023/09/11 15:59:17;;;;;;;9.55;6.85;;;25.10;76.00;;;;;;10369165;28;20030;-57
2023/09/11 16:04:18;;;;;;;15.50;7.95;;;25.00;75.60;;;;;;10406152;28;20029;-60
2023/09/11 16:09:19;;;;;;;12.65;8.63;;;25.00;75.40;;;;;;10410559;28;20486;-61
2023/09/11 16:14:20;;;;;;;11.43;7.55;;;25.00;75.60;;;;;;10396617;28;20054;-61
2023/09/11 16:19:21;;;;;;;9.77;7.05;;;24.90;75.70;;;;;;10368714;28;20034;-60
2023/09/11 16:24:22;;;;;;;11.07;6.07;;;24.90;76.40;;;;;;10369164;28;20041;-60
2023/09/11 16:29:22;;;;;;;10.93;7.05;;;24.90;75.80;;;;;;10387808;28;20446;-60
2023/09/11 16:34:23;;;;;;;10.48;7.43;;;24.80;75.70;;;;;;10369159;28;20353;-60
2023/09/11 16:39:24;;;;;;;11.27;7.88;;;24.80;75.60;;;;;;10389093;28;20467;-60
2023/09/11 16:44:27;;;;;;;8.00;6.97;;;24.80;75.50;;;;;;10369084;28;20137;-60
2023/09/11 16:49:27;;;;;;;10.05;7.05;;;24.80;75.70;;;;;;10368454;28;20022;-60
2023/09/11 16:54:28;;;;;;;9.30;7.03;;;24.80;75.60;;;;;;10368076;28;20029;-60
2023/09/11 16:59:29;;;;;;;9.60;7.85;;;24.80;75.60;;;;;;10368110;28;20546;-61
2023/09/11 17:04:30;;;;;;;9.43;8.48;;;24.80;75.50;;;;;;10367945;28;20037;-58
2023/09/11 17:09:30;;;;;;;7.00;5.90;;;24.80;75.70;;;;;;10368167;28;20500;-59
2023/09/11 17:14:32;;;;;;;12.45;7.82;;;24.80;75.60;;;;;;10370118;28;20148;-59
2023/09/11 17:19:32;;;;;;;8.85;6.78;;;24.80;75.60;;;;;;10380058;28;20034;-59
2023/09/11 17:24:33;;;;;;;11.50;7.68;;;24.70;75.60;;;;;;10368600;28;20034;-57
2023/09/11 17:29:34;;;;;;;7.35;6.22;;;24.70;75.60;;;;;;10388648;28;20030;-59
2023/09/11 17:34:34;;;;;;;7.93;7.00;;;24.80;75.40;;;;;;10367946;28;20033;-58
2023/09/11 17:39:35;;;;;;;11.05;7.82;;;24.80;75.50;;;;;;10383929;28;20559;-57
2023/09/11 17:44:36;;;;;;;11.32;6.97;;;24.80;75.60;;;;;;10386079;28;20030;-59
2023/09/11 17:49:37;;;;;;;8.57;6.72;;;24.80;75.50;;;;;;10366565;28;20030;-58
2023/09/11 17:54:37;;;;;;;9.32;6.50;;;24.70;75.50;;;;;;10366637;28;20041;-59
2023/09/11 17:59:38;;;;;;;8.98;7.28;;;24.80;75.70;;;;;;10366314;28;20541;-56
2023/09/11 18:04:40;;;;;;;7.50;6.43;;;24.80;75.90;;;;;;10366459;28;20030;-59
2023/09/11 18:09:41;;;;;;;8.30;7.50;;;24.70;75.70;;;;;;10365730;28;20041;-57
2023/09/11 18:14:42;;;;;;;8.20;6.68;;;24.70;75.50;;;;;;10370049;28;20052;-59
2023/09/11 18:19:42;;;;;;;9.25;7.30;;;24.70;75.40;;;;;;10405521;28;20038;-58
2023/09/11 18:24:43;;;;;;;7.63;6.65;;;24.70;75.80;;;;;;10378941;28;20571;-58
2023/09/11 18:29:44;;;;;;;12.20;7.60;;;24.70;75.90;;;;;;10386574;28;20033;-58
2023/09/11 18:34:45;;;;;;;10.52;7.57;;;24.70;75.90;;;;;;10392265;28;20041;-58
2023/09/11 18:39:46;;;;;;;8.02;7.22;;;24.70;75.90;;;;;;10376931;28;20048;-57
2023/09/11 18:44:47;;;;;;;10.13;7.55;;;24.70;76.00;;;;;;10370678;28;20030;-58
2023/09/11 18:49:47;;;;;;;10.88;7.25;;;24.70;76.10;;;;;;10384454;28;20521;-58
2023/09/11 18:54:52;;;;;;;9.25;6.85;;;24.70;76.20;;;;;;10379350;28;20052;-59
2023/09/11 18:59:52;;;;;;;8.93;7.28;;;24.70;76.20;;;;;;10381580;28;20056;-58
2023/09/11 19:04:54;;;;;;;10.68;7.60;;;24.70;76.20;;;;;;10389858;28;20113;-58
2023/09/11 19:09:54;;;;;;;9.05;6.97;;;24.70;76.40;;;;;;10374711;28;20025;-57
2023/09/11 19:14:55;;;;;;;13.00;8.13;;;24.70;76.40;;;;;;10376770;28;20042;-56
2023/09/11 19:19:56;;;;;;;7.55;6.50;;;24.70;76.40;;;;;;10370906;28;20041;-58
2023/09/11 19:25:01;;;;;;;7.32;6.63;;;24.70;76.50;;;;;;10386111;28;20037;-57
2023/09/11 19:30:06;;;;;;;7.60;6.57;;;24.70;76.60;;;;;;10389870;28;20535;-57
2023/09/11 19:35:07;;;;;;;7.78;6.97;;;24.60;76.60;;;;;;10390315;28;20037;-58
2023/09/11 19:40:08;;;;;;;9.30;7.22;;;24.70;76.50;;;;;;10412200;28;20029;-58
2023/09/11 19:45:09;;;;;;;9.05;8.10;;;24.60;76.40;;;;;;10386415;28;20030;-57
2023/09/11 19:50:12;;;;;;;8.48;7.47;;;24.60;76.40;;;;;;10386821;28;20033;-57
2023/09/11 19:55:13;;;;;;;7.13;6.28;;;24.60;76.40;;;;;;10385763;28;20072;-58
2023/09/11 20:00:14;;;;;;;8.32;7.47;;;24.60;76.50;;;;;;10386374;28;20018;-58
2023/09/11 20:05:15;;;;;;;9.05;7.70;;;24.60;76.50;;;;;;10385786;28;20042;-58
2023/09/11 20:10:16;;;;;;;9.50;8.35;;;24.60;76.40;;;;;;10386165;28;20481;-58
2023/09/11 20:15:17;;;;;;;8.77;7.82;;;24.60;76.50;;;;;;10386383;28;20049;-57
2023/09/11 20:20:18;;;;;;;9.82;8.75;;;24.60;76.40;;;;;;10383414;28;20651;-57
2023/09/11 20:25:19;;;;;;;8.60;7.53;;;24.60;76.50;;;;;;10370279;28;20160;-58
2023/09/11 20:30:19;;;;;;;9.70;8.80;;;24.60;76.50;;;;;;10389552;28;20037;-57
2023/09/11 20:35:20;;;;;;;11.20;8.40;;;24.50;76.40;;;;;;10369463;28;20033;-58
2023/09/11 20:40:21;;;;;;;9.32;8.43;;;24.60;76.50;;;;;;10369635;28;20508;-59
2023/09/11 20:45:22;;;;;;;9.95;8.95;;;24.60;76.40;;;;;;10368964;28;20075;-58
2023/09/11 20:50:22;;;;;;;9.48;8.10;;;24.60;76.40;;;;;;10410432;28;20021;-58
2023/09/11 20:55:23;;;;;;;8.10;7.30;;;24.50;76.30;;;;;;10390286;28;20036;-59
2023/09/11 21:00:24;;;;;;;9.75;8.43;;;24.50;76.40;;;;;;10369515;28;20752;-59
2023/09/11 21:05:24;;;;;;;9.80;8.70;;;24.60;76.50;;;;;;10367777;28;20053;-59
2023/09/11 21:10:25;;;;;;;9.00;8.15;;;24.60;76.40;;;;;;10368927;28;20021;-58
2023/09/11 21:15:26;;;;;;;9.73;8.73;;;24.60;76.40;;;;;;10377662;28;20124;-57
2023/09/11 21:20:27;;;;;;;11.63;9.23;;;24.50;76.40;;;;;;10408942;28;20033;-58
2023/09/11 21:25:28;;;;;;;9.77;8.63;;;24.50;76.30;;;;;;10390056;28;20384;-58
2023/09/11 21:30:29;;;;;;;9.38;8.48;;;24.50;76.40;;;;;;10405171;28;20034;-58
2023/09/11 21:35:30;;;;;;;10.23;9.18;;;24.50;76.40;;;;;;10367822;28;20507;-59
2023/09/11 21:40:32;;;;;;;12.65;9.70;;;24.50;76.30;;;;;;10367964;28;20050;-58
2023/09/11 21:45:33;;;;;;;12.68;8.57;;;24.50;76.30;;;;;;10367605;28;20022;-59
2023/09/11 21:50:34;;;;;;;10.50;9.32;;;24.50;76.40;;;;;;10367841;28;20029;-59
2023/09/11 21:55:34;;;;;;;10.20;8.98;;;24.50;76.30;;;;;;10367775;28;20030;-58
2023/09/11 22:00:35;;;;;;;10.30;8.52;;;24.50;76.30;;;;;;10368141;28;20030;-57
2023/09/11 22:05:44;;;;;;;11.82;9.50;;;24.50;76.30;;;;;;10367449;28;20057;-58
2023/09/11 22:10:45;;;;;;;11.23;9.85;;;24.50;76.30;;;;;;10367376;28;20564;-58
2023/09/11 22:15:45;;;;;;;10.82;9.35;;;24.50;76.30;;;;;;10380421;28;20045;-57
2023/09/11 22:20:46;;;;;;;10.45;9.45;;;24.50;76.30;;;;;;10414682;28;20033;-57
2023/09/11 22:25:47;;;;;;;10.65;9.55;;;24.50;76.30;;;;;;10378335;28;20026;-58
2023/09/11 22:30:48;;;;;;;9.85;8.85;;;24.50;76.30;;;;;;10396686;28;20030;-58
2023/09/11 22:35:48;;;;;;;11.85;8.98;;;24.50;76.30;;;;;;10374362;28;20041;-58
2023/09/11 22:40:49;;;;;;;11.30;9.40;;;24.50;76.30;;;;;;10374005;28;20037;-59
2023/09/11 22:45:50;;;;;;;10.82;9.25;;;24.50;76.30;;;;;;10373585;28;20064;-58
2023/09/11 22:50:51;;;;;;;11.38;10.30;;;24.50;76.30;;;;;;10401810;28;20025;-58
2023/09/11 22:55:51;;;;;;;10.82;9.73;;;24.50;76.30;;;;;;10406085;28;20040;-58
2023/09/11 23:00:52;;;;;;;11.52;10.43;;;24.40;76.30;;;;;;10373668;28;20347;-58
2023/09/11 23:05:54;;;;;;;10.70;9.60;;;24.50;76.20;;;;;;10373006;28;20433;-58
2023/09/11 23:10:55;;;;;;;11.73;10.23;;;24.40;76.20;;;;;;10373434;28;20434;-58
2023/09/11 23:15:58;;;;;;;12.07;10.88;;;24.40;76.20;;;;;;10399808;28;20057;-59
2023/09/11 23:20:58;;;;;;;10.55;9.45;;;24.40;76.20;;;;;;10413802;28;20425;-58
2023/09/11 23:25:59;;;;;;;10.95;9.80;;;24.40;76.80;;;;;;10374681;28;20239;-59
2023/09/11 23:31:00;;;;;;;11.40;10.25;;;24.40;76.20;;;;;;10390597;28;20041;-58
2023/09/11 23:36:01;;;;;;;12.00;10.80;;;24.40;76.10;;;;;;10371999;28;20041;-58
2023/09/11 23:41:01;;;;;;;11.38;10.18;;;24.40;76.20;;;;;;10372008;28;20436;-57
2023/09/11 23:46:03;;;;;;;11.05;9.95;;;24.40;76.20;;;;;;10371765;28;20026;-58
2023/09/11 23:51:04;;;;;;;12.27;11.07;;;24.40;76.20;;;;;;10371976;28;20428;-58
2023/09/11 23:56:04;;;;;;;11.95;10.75;;;24.40;76.10;;;;;;10371049;28;20038;-58
